createdAt,value
2022-08-26T00:04:54.049Z,23.10
2022-08-26T00:09:59.793Z,23.06
2022-08-26T00:15:08.920Z,23.02
2022-08-26T00:20:17.267Z,23.01
2022-08-26T00:25:24.159Z,22.95
2022-08-26T00:30:31.809Z,22.93
2022-08-26T00:35:37.541Z,22.90
2022-08-26T00:40:50.489Z,22.83
2022-08-26T00:46:02.548Z,22.77
2022-08-26T00:51:13.995Z,22.74
2022-08-26T00:56:39.759Z,22.71
2022-08-26T01:01:46.322Z,22.72
2022-08-26T01:06:54.814Z,22.69
2022-08-26T01:12:03.039Z,22.70
2022-08-26T01:17:09.675Z,22.69
2022-08-26T01:22:33.465Z,22.67
2022-08-26T01:27:39.464Z,22.63
2022-08-26T01:32:46.379Z,22.63
2022-08-26T01:37:55.031Z,22.55
2022-08-26T01:43:02.886Z,22.50
2022-08-26T01:48:11.774Z,22.47
2022-08-26T01:53:19.612Z,22.44
2022-08-26T01:58:35.609Z,22.38
2022-08-26T02:03:53.210Z,22.31
2022-08-26T02:09:01.102Z,22.33
2022-08-26T02:14:18.603Z,22.28
2022-08-26T02:19:33.082Z,22.26
2022-08-26T02:24:53.671Z,22.24
2022-08-26T02:30:17.463Z,22.22
2022-08-26T02:35:25.176Z,22.20
2022-08-26T02:40:34.085Z,22.17
2022-08-26T02:45:41.833Z,22.18
2022-08-26T02:50:47.846Z,22.19
2022-08-26T02:55:53.682Z,22.16
2022-08-26T03:00:59.223Z,22.14
2022-08-26T03:06:04.909Z,22.09
2022-08-26T03:16:16.899Z,22.06
2022-08-26T03:21:22.736Z,22.00
2022-08-26T03:26:29.842Z,22.01
2022-08-26T03:31:36.487Z,21.96
2022-08-26T03:36:42.698Z,21.96
2022-08-26T03:41:51.954Z,21.94
2022-08-26T03:46:57.777Z,21.87
2022-08-26T03:52:04.700Z,21.82
2022-08-26T03:57:11.304Z,21.80
2022-08-26T04:02:17.866Z,21.80
2022-08-26T04:07:25.097Z,21.82
2022-08-26T04:12:30.761Z,21.84
2022-08-26T04:17:36.984Z,21.80
2022-08-26T04:22:43.428Z,21.78
2022-08-26T04:27:49.095Z,21.78
2022-08-26T04:32:56.096Z,21.78
2022-08-26T04:38:01.732Z,21.73
2022-08-26T04:43:09.366Z,21.62
2022-08-26T04:48:16.966Z,21.62
2022-08-26T04:53:23.580Z,21.68
2022-08-26T04:58:30.376Z,21.74
2022-08-26T05:03:37.114Z,21.82
2022-08-26T05:08:43.037Z,21.90
2022-08-26T05:13:49.119Z,21.98
2022-08-26T05:24:02.021Z,22.14
2022-08-26T05:29:07.753Z,22.25
2022-08-26T05:34:13.521Z,22.35
2022-08-26T05:39:19.931Z,22.37
2022-08-26T05:44:26.906Z,22.49
2022-08-26T05:49:32.686Z,22.56
2022-08-26T05:54:40.386Z,22.66
2022-08-26T05:59:46.011Z,22.88
2022-08-26T06:04:51.883Z,23.00
2022-08-26T06:10:21.405Z,23.18
2022-08-26T06:15:05.105Z,23.38
2022-08-26T06:20:11.367Z,23.55
2022-08-26T06:25:34.869Z,23.62
2022-08-26T06:30:42.750Z,23.79
2022-08-26T06:35:48.453Z,23.90
2022-08-26T06:40:59.772Z,24.03
2022-08-26T06:46:08.437Z,24.15
2022-08-26T06:51:17.921Z,24.29
2022-08-26T06:56:25.795Z,24.40
2022-08-26T07:01:34.744Z,24.53
2022-08-26T07:06:43.190Z,24.73
2022-08-26T07:11:49.542Z,24.87
2022-08-26T07:16:55.753Z,25.03
2022-08-26T07:22:04.211Z,25.18
2022-08-26T07:27:13.466Z,25.38
2022-08-26T07:32:21.003Z,25.53
2022-08-26T07:37:28.412Z,25.71
2022-08-26T07:42:35.925Z,25.84
2022-08-26T07:47:42.201Z,26.03
2022-08-26T07:52:47.965Z,26.05
2022-08-26T07:57:55.067Z,26.09
2022-08-26T08:03:01.977Z,26.25
2022-08-26T08:08:26.664Z,26.35
2022-08-26T08:13:17.718Z,26.52
2022-08-26T08:18:24.185Z,26.59
2022-08-26T08:23:30.799Z,26.67
2022-08-26T08:28:37.478Z,26.76
2022-08-26T08:33:43.031Z,26.85
2022-08-26T08:38:48.907Z,26.98
2022-08-26T08:43:56.801Z,26.96
2022-08-26T08:49:04.356Z,27.09
2022-08-26T08:54:10.912Z,27.12
2022-08-26T08:59:28.707Z,27.32
2022-08-26T09:04:59.016Z,27.44
2022-08-26T09:10:39.401Z,27.61
2022-08-26T09:16:10.110Z,27.50
2022-08-26T09:21:18.001Z,27.65
2022-08-26T09:26:31.937Z,27.66
2022-08-26T09:31:41.704Z,27.86
2022-08-26T09:36:53.830Z,27.81
2022-08-26T09:42:28.844Z,27.91
2022-08-26T09:47:37.336Z,28.08
2022-08-26T09:52:43.093Z,28.24
2022-08-26T09:57:54.341Z,28.36
2022-08-26T10:03:03.728Z,28.41
2022-08-26T10:08:32.594Z,28.45
2022-08-26T10:13:42.844Z,28.65
2022-08-26T10:19:08.262Z,28.83
2022-08-26T10:24:19.568Z,28.94
2022-08-26T10:29:28.589Z,29.15
2022-08-26T10:34:35.287Z,29.34
2022-08-26T10:39:56.989Z,29.53
2022-08-26T10:45:02.790Z,29.67
2022-08-26T10:50:08.948Z,29.59
2022-08-26T10:55:17.425Z,29.80
2022-08-26T11:00:44.266Z,29.80
2022-08-26T11:06:09.489Z,29.82
2022-08-26T11:11:35.132Z,29.80
2022-08-26T11:16:44.571Z,29.70
2022-08-26T11:21:53.727Z,29.79
2022-08-26T11:26:59.397Z,29.84
2022-08-26T11:32:05.881Z,29.82
2022-08-26T11:37:14.455Z,29.82
2022-08-26T11:42:48.640Z,29.91
2022-08-26T11:47:54.999Z,29.84
2022-08-26T11:53:06.191Z,29.82
2022-08-26T11:58:14.428Z,29.89
2022-08-26T12:03:23.301Z,29.93
2022-08-26T12:08:32.038Z,30.10
2022-08-26T12:13:39.580Z,30.11
2022-08-26T12:18:45.341Z,30.18
2022-08-26T12:23:54.847Z,30.40
2022-08-26T12:29:10.002Z,30.55
2022-08-26T12:34:19.223Z,30.71
2022-08-26T12:39:34.223Z,30.65
2022-08-26T12:44:53.381Z,30.73
2022-08-26T12:50:07.471Z,30.75
2022-08-26T12:55:37.193Z,30.85
2022-08-26T13:00:45.913Z,30.94
2022-08-26T13:05:51.602Z,31.04
2022-08-26T13:11:06.383Z,31.16
2022-08-26T13:16:12.497Z,31.14
2022-08-26T13:21:21.202Z,31.55
2022-08-26T13:26:27.436Z,31.78
2022-08-26T13:31:35.693Z,31.84
2022-08-26T13:36:44.566Z,31.98
2022-08-26T13:41:51.562Z,31.98
2022-08-26T13:46:57.105Z,32.18
2022-08-26T13:52:03.920Z,32.07
2022-08-26T13:57:10.094Z,31.93
2022-08-26T14:02:15.650Z,31.76
2022-08-26T14:07:21.310Z,31.76
2022-08-26T14:12:26.878Z,31.70
2022-08-26T14:17:33.162Z,31.65
2022-08-26T14:22:52.090Z,31.66
2022-08-26T14:27:47.976Z,31.61
2022-08-26T14:32:56.995Z,31.65
2022-08-26T14:38:02.583Z,31.66
2022-08-26T14:43:09.905Z,31.49
2022-08-26T14:48:15.661Z,31.52
2022-08-26T14:53:38.992Z,31.58
2022-08-26T14:58:44.709Z,31.48
2022-08-26T15:03:51.298Z,31.49
2022-08-26T15:08:56.865Z,31.64
2022-08-26T15:14:02.834Z,31.56
2022-08-26T15:19:08.723Z,31.47
2022-08-26T15:24:16.197Z,31.33
2022-08-26T15:29:23.879Z,31.15
2022-08-26T15:34:29.499Z,30.94
2022-08-26T15:39:36.398Z,30.89
2022-08-26T15:44:46.093Z,30.70
2022-08-26T15:49:51.615Z,30.42
2022-08-26T15:54:57.344Z,30.35
2022-08-26T16:00:03.260Z,30.33
2022-08-26T16:05:11.811Z,30.09
2022-08-26T16:10:18.791Z,29.92
2022-08-26T16:15:24.493Z,29.82
2022-08-26T16:20:32.682Z,29.74
2022-08-26T16:25:39.791Z,29.68
2022-08-26T16:30:46.119Z,29.36
2022-08-26T16:40:57.505Z,29.02
2022-08-26T16:46:03.300Z,28.99
2022-08-26T16:51:16.318Z,28.83
2022-08-26T16:56:33.427Z,28.71
2022-08-26T17:01:32.308Z,28.68
2022-08-26T17:06:38.435Z,28.64
2022-08-26T17:11:44.662Z,28.52
2022-08-26T17:16:51.613Z,28.20
2022-08-26T17:21:57.180Z,28.04
2022-08-26T17:27:02.765Z,27.85
2022-08-26T17:32:08.437Z,27.64
2022-08-26T17:37:14.059Z,27.59
2022-08-26T17:42:19.560Z,27.50
2022-08-26T17:47:25.308Z,27.42
2022-08-26T17:52:31.479Z,27.29
2022-08-26T17:57:40.556Z,27.20
2022-08-26T18:02:44.964Z,27.05
2022-08-26T18:07:50.727Z,26.92
2022-08-26T18:12:56.201Z,26.87
2022-08-26T18:18:01.717Z,26.73
2022-08-26T18:23:07.654Z,26.63
2022-08-26T18:28:13.800Z,26.50
2022-08-26T18:33:21.125Z,26.41
2022-08-26T18:38:28.343Z,26.30
2022-08-26T18:43:33.978Z,26.18
2022-08-26T18:48:41.190Z,26.11
2022-08-26T18:53:46.750Z,26.00
2022-08-26T18:58:52.823Z,25.92
2022-08-26T19:04:01.089Z,25.77
2022-08-26T19:09:09.226Z,25.65
2022-08-26T19:14:16.976Z,25.49
2022-08-26T19:19:24.831Z,25.40
2022-08-26T19:24:30.809Z,25.30
2022-08-26T19:29:38.809Z,25.28
2022-08-26T19:34:44.611Z,26.03
2022-08-26T19:39:51.670Z,25.35
2022-08-26T19:45:11.019Z,25.08
2022-08-26T19:50:18.796Z,24.97
2022-08-26T19:55:26.352Z,24.86
2022-08-26T20:00:35.921Z,24.79
2022-08-26T20:05:41.717Z,24.72
2022-08-26T20:10:47.291Z,24.71
2022-08-26T20:15:53.893Z,24.75
2022-08-26T20:21:17.276Z,24.71
2022-08-26T20:26:23.118Z,24.69
2022-08-26T20:31:30.073Z,24.60
2022-08-26T20:36:38.258Z,24.58
2022-08-26T20:41:45.557Z,24.54
2022-08-26T20:46:54.625Z,24.53
2022-08-26T20:52:01.828Z,24.47
2022-08-26T20:57:08.614Z,24.50
2022-08-26T21:02:14.172Z,24.47
2022-08-26T21:07:21.101Z,24.45
2022-08-26T21:12:27.962Z,24.39
2022-08-26T21:17:33.646Z,24.31
2022-08-26T21:22:39.301Z,24.26
2022-08-26T21:27:45.378Z,24.19
2022-08-26T21:32:51.148Z,24.17
2022-08-26T21:37:57.021Z,24.15
2022-08-26T21:43:02.794Z,24.21
2022-08-26T21:48:09.737Z,24.22
2022-08-26T21:53:15.737Z,24.17
2022-08-26T21:58:22.980Z,24.16
2022-08-26T22:03:29.979Z,24.12
2022-08-26T22:08:37.440Z,24.11
2022-08-26T22:13:45.726Z,24.02
2022-08-26T22:18:51.283Z,24.02
2022-08-26T22:23:59.028Z,23.97
2022-08-26T22:29:06.802Z,23.90
2022-08-26T22:34:16.764Z,23.86
2022-08-26T22:39:24.919Z,23.81
2022-08-26T22:44:30.665Z,23.77
2022-08-26T22:49:36.631Z,23.75
2022-08-26T22:54:42.187Z,23.61
2022-08-26T22:59:48.421Z,23.59
2022-08-26T23:04:54.090Z,23.68
2022-08-26T23:09:59.607Z,23.68
2022-08-26T23:15:08.903Z,23.62
2022-08-26T23:20:17.132Z,23.63
2022-08-26T23:25:23.365Z,23.63
2022-08-26T23:30:32.479Z,23.58
2022-08-26T23:35:38.080Z,23.47
2022-08-26T23:40:45.489Z,23.45
2022-08-26T23:45:51.135Z,23.52
2022-08-26T23:51:15.881Z,23.45
2022-08-26T23:56:21.439Z,23.35
